Time;durP1;ratioP1;P1;durP2;ratioP2;P2;SDS_P1;SDS_P2;PMS_P1;PMS_P2;Temp;Humidity;BMP_temperature;BMP_pressure;BME280_temperature;BME280_humidity;BME280_pressure;Samples;Min_cycle;Max_cycle;Signal;HPM_P1;HPM_P2
2022/09/07 00:02:09;;;;;;;9.37;7.03;;;17.90;99.90;19.40;97006.00;;;;5101831;28;20202;-86
2022/09/07 00:04:59;;;;;;;7.10;6.50;;;17.90;99.90;19.40;96999.00;;;;5092616;28;20242;-87
2022/09/07 00:07:48;;;;;;;8.03;7.23;;;17.90;99.90;19.40;96999.00;;;;5092739;28;20231;-88
2022/09/07 00:10:37;;;;;;;11.63;9.90;;;17.90;99.90;19.30;96990.00;;;;5106471;28;20206;-86
2022/09/07 00:13:30;;;;;;;11.03;9.83;;;17.90;99.90;19.40;97000.00;;;;5095634;28;20281;-87
2022/09/07 00:16:22;;;;;;;12.40;10.70;;;17.90;99.90;19.50;97000.00;;;;5088295;28;20584;-87
2022/09/07 00:19:12;;;;;;;8.93;8.13;;;17.90;99.90;19.50;96999.00;;;;5089656;28;20188;-87
2022/09/07 00:22:02;;;;;;;10.27;9.17;;;17.90;99.90;19.20;96989.00;;;;5093212;28;20199;-88
2022/09/07 00:24:51;;;;;;;10.93;9.93;;;17.90;99.90;19.20;96983.00;;;;5084435;28;20224;-88
2022/09/07 00:27:40;;;;;;;11.63;10.07;;;17.90;99.90;19.20;96996.00;;;;5088055;28;20928;-86
2022/09/07 00:30:29;;;;;;;12.00;10.80;;;17.90;99.90;19.30;96982.00;;;;5087343;28;20196;-86
2022/09/07 00:33:18;;;;;;;11.10;9.63;;;17.80;99.90;19.30;96985.00;;;;5106862;28;20190;-86
2022/09/07 00:36:07;;;;;;;9.67;8.63;;;17.80;99.90;19.30;96981.00;;;;5107989;28;20221;-86
2022/09/07 00:38:58;;;;;;;11.50;10.30;;;17.80;99.90;19.20;96989.00;;;;5104419;28;20205;-86
2022/09/07 00:41:47;;;;;;;10.37;9.30;;;17.80;99.90;19.30;96991.00;;;;5093943;28;20206;-87
2022/09/07 00:45:06;;;;;;;9.37;8.47;;;17.80;99.90;19.20;96976.00;;;;5092521;28;20231;-87
2022/09/07 00:48:01;;;;;;;9.07;8.17;;;17.80;99.90;19.20;96972.00;;;;5086155;28;20209;-87
2022/09/07 00:50:57;;;;;;;9.33;8.37;;;17.80;99.90;19.20;96972.00;;;;5093312;28;20194;-86
2022/09/07 00:53:53;;;;;;;7.97;7.13;;;17.80;99.90;19.00;96972.00;;;;5092861;28;20191;-86
2022/09/07 00:56:45;;;;;;;7.43;6.83;;;17.70;99.90;19.00;96976.00;;;;5091276;28;20206;-86
2022/09/07 00:59:40;;;;;;;8.57;7.80;;;17.70;99.90;19.00;96974.00;;;;5093408;28;20207;-86
2022/09/07 01:02:29;;;;;;;8.30;7.50;;;17.60;99.90;18.90;96971.00;;;;5094543;28;20208;-87
2022/09/07 01:05:26;;;;;;;8.60;7.30;;;17.60;99.90;18.90;96968.00;;;;5083017;28;20245;-86
2022/09/07 01:08:15;;;;;;;10.33;7.73;;;17.50;99.90;18.90;96969.00;;;;5091415;28;20225;-86
2022/09/07 01:11:04;;;;;;;7.77;7.03;;;17.50;99.90;18.80;96966.00;;;;5091070;28;20195;-86
2022/09/07 01:13:56;;;;;;;7.07;6.37;;;17.50;99.90;18.80;96966.00;;;;5100761;28;20210;-88
2022/09/07 01:17:07;;;;;;;8.27;7.47;;;17.40;99.90;18.80;96968.00;;;;5098594;28;20203;-87
2022/09/07 01:20:32;;;;;;;7.60;6.87;;;17.40;99.90;18.70;96957.00;;;;5090697;28;20567;-86
2022/09/07 01:24:19;;;;;;;7.03;6.33;;;17.40;99.90;18.70;96955.00;;;;5082763;28;20223;-86
2022/09/07 01:27:56;;;;;;;6.53;5.93;;;17.30;99.90;18.60;96947.00;;;;5094698;28;20186;-86
2022/09/07 01:30:55;;;;;;;9.27;7.67;;;17.30;99.90;18.60;96946.00;;;;5079211;28;20207;-86
2022/09/07 01:33:55;;;;;;;8.70;7.57;;;17.20;99.90;18.50;96949.00;;;;5081714;28;20196;-87
2022/09/07 01:36:51;;;;;;;8.27;7.47;;;17.20;99.90;18.40;96943.00;;;;5114409;28;20203;-88
2022/09/07 01:39:48;;;;;;;9.63;8.73;;;17.20;99.90;18.50;96938.00;;;;5102054;28;20839;-88
2022/09/07 01:42:45;;;;;;;9.20;8.30;;;17.10;99.90;18.60;96933.00;;;;5102561;28;20209;-89
2022/09/07 01:45:40;;;;;;;7.53;6.83;;;17.10;99.90;18.60;96928.00;;;;5099249;28;20234;-90
2022/09/07 01:48:29;;;;;;;8.83;7.93;;;17.20;99.90;18.60;96942.00;;;;5107372;28;20195;-89
2022/09/07 01:51:22;;;;;;;8.90;8.10;;;17.20;99.90;18.50;96938.00;;;;5099122;28;20210;-86
2022/09/07 01:54:18;;;;;;;9.63;8.53;;;17.20;99.90;18.50;96930.00;;;;5116575;28;20195;-87
2022/09/07 01:57:13;;;;;;;11.03;8.27;;;17.10;99.90;18.50;96937.00;;;;5106348;28;20203;-86
2022/09/07 02:00:09;;;;;;;10.27;8.70;;;17.20;99.90;18.40;96930.00;;;;5110849;28;20191;-88
2022/09/07 02:03:04;;;;;;;12.77;9.10;;;17.20;99.90;18.60;96931.00;;;;5099146;28;20669;-88
2022/09/07 02:05:58;;;;;;;13.40;10.77;;;17.20;99.90;18.70;96918.00;;;;5092874;28;20219;-89
2022/09/07 02:08:54;;;;;;;10.67;9.23;;;17.20;99.90;18.70;96921.00;;;;5092365;28;20210;-86
2022/09/07 02:11:46;;;;;;;11.47;8.57;;;17.20;99.90;18.70;96916.00;;;;5090205;28;20218;-86
2022/09/07 02:14:38;;;;;;;8.70;7.80;;;17.20;99.90;18.70;96913.00;;;;5099598;28;20218;-86
2022/09/07 02:17:34;;;;;;;10.57;8.70;;;17.20;99.90;18.80;96908.00;;;;5093765;28;20268;-86
2022/09/07 02:20:27;;;;;;;9.60;8.70;;;17.20;99.90;18.70;96910.00;;;;5082796;28;20196;-85
2022/09/07 02:23:20;;;;;;;11.47;8.23;;;17.20;99.90;18.60;96894.00;;;;5100068;28;20210;-85
2022/09/07 02:26:15;;;;;;;9.40;8.07;;;17.20;99.90;18.20;96900.00;;;;5093689;28;20207;-86
2022/09/07 02:29:04;;;;;;;9.60;8.60;;;17.20;99.90;18.40;96896.00;;;;5102569;28;20199;-85
2022/09/07 02:31:53;;;;;;;8.40;7.50;;;17.10;99.90;18.60;96896.00;;;;5093838;28;20203;-86
2022/09/07 02:34:43;;;;;;;8.93;8.13;;;17.10;99.90;18.60;96889.00;;;;5091739;28;20210;-85
2022/09/07 02:37:33;;;;;;;8.47;7.50;;;17.00;99.90;18.60;96890.00;;;;5090974;28;20205;-85
2022/09/07 02:40:23;;;;;;;8.07;7.27;;;17.10;99.90;18.30;96882.00;;;;5088618;28;20203;-86
2022/09/07 02:43:12;;;;;;;9.30;8.33;;;17.00;99.90;18.00;96888.00;;;;5088041;28;20601;-87
2022/09/07 02:46:17;;;;;;;9.03;8.17;;;16.90;99.90;18.10;96882.00;;;;5099434;28;20218;-85
2022/09/07 02:49:17;;;;;;;9.20;8.30;;;16.80;99.90;17.80;96873.00;;;;5082955;28;20199;-86
2022/09/07 02:52:19;;;;;;;9.00;8.07;;;16.70;99.90;17.70;96878.00;;;;5109933;28;20182;-87
2022/09/07 02:55:18;;;;;;;9.57;8.60;;;16.60;99.90;17.90;96876.00;;;;5113725;28;20442;-87
2022/09/07 02:58:24;;;;;;;11.03;8.77;;;16.50;99.90;18.10;96873.00;;;;5090054;28;20202;-88
2022/09/07 03:01:23;;;;;;;9.27;8.10;;;16.50;99.90;18.10;96879.00;;;;5106648;28;20692;-88
2022/09/07 03:04:18;;;;;;;15.93;9.43;;;16.50;99.90;17.70;96868.00;;;;5105338;28;20215;-88
2022/09/07 03:07:13;;;;;;;10.60;8.53;;;16.50;99.90;17.70;96862.00;;;;5103153;28;20700;-88
2022/09/07 03:10:05;;;;;;;8.90;8.00;;;16.40;99.90;17.90;96850.00;;;;5104574;28;20202;-88
2022/09/07 03:12:54;;;;;;;9.43;8.53;;;16.40;99.90;17.90;96850.00;;;;5089245;28;20203;-88
2022/09/07 03:15:43;;;;;;;12.40;9.80;;;16.40;99.90;17.70;96849.00;;;;5093255;28;20246;-88
2022/09/07 03:18:32;;;;;;;9.50;8.50;;;16.40;99.90;17.40;96849.00;;;;5095342;28;20748;-88
2022/09/07 03:21:20;;;;;;;10.33;8.43;;;16.30;99.90;17.30;96862.00;;;;5098690;28;20187;-88
2022/09/07 03:24:11;;;;;;;9.77;8.87;;;16.20;99.90;17.00;96851.00;;;;5089056;28;20230;-89
2022/09/07 03:27:00;;;;;;;12.90;10.13;;;16.10;99.90;17.40;96849.00;;;;5098615;28;20218;-88
2022/09/07 03:29:49;;;;;;;11.10;10.10;;;16.00;99.90;17.40;96844.00;;;;5090324;28;20211;-88
2022/09/07 03:32:39;;;;;;;10.10;7.63;;;16.00;99.90;17.30;96854.00;;;;5104466;28;20952;-88
2022/09/07 03:35:28;;;;;;;8.60;7.80;;;16.00;99.90;17.20;96858.00;;;;5079759;28;20223;-85
2022/09/07 03:38:17;;;;;;;9.53;8.53;;;16.00;99.90;17.40;96835.00;;;;5102743;28;20575;-86
2022/09/07 03:41:08;;;;;;;10.50;8.40;;;16.00;99.90;17.50;96847.00;;;;5098570;28;20191;-88
2022/09/07 03:43:56;;;;;;;9.40;8.50;;;16.00;99.90;17.40;96846.00;;;;5092567;28;20222;-89
2022/09/07 03:46:45;;;;;;;9.20;8.30;;;15.90;99.90;17.20;96847.00;;;;5097936;28;20673;-88
2022/09/07 03:49:34;;;;;;;11.00;8.73;;;15.90;99.90;17.40;96849.00;;;;5105944;28;20206;-88
2022/09/07 03:52:23;;;;;;;9.43;8.53;;;15.90;99.90;17.30;96857.00;;;;5089749;28;20198;-88
2022/09/07 03:55:12;;;;;;;8.63;7.83;;;15.90;99.90;16.90;96855.00;;;;5091951;28;20583;-88
2022/09/07 03:58:02;;;;;;;9.37;8.47;;;15.90;99.90;16.90;96854.00;;;;5085902;28;20210;-88
2022/09/07 04:00:51;;;;;;;9.70;8.57;;;15.80;99.90;17.20;96855.00;;;;5094778;28;20199;-88
2022/09/07 04:03:40;;;;;;;8.43;7.57;;;15.60;99.90;17.20;96850.00;;;;5101446;28;20195;-88
2022/09/07 04:06:30;;;;;;;9.20;7.63;;;15.80;99.90;17.00;96856.00;;;;5106995;28;20203;-88
2022/09/07 04:09:19;;;;;;;9.23;8.33;;;15.70;99.90;17.10;96853.00;;;;5085185;28;20220;-88
2022/09/07 04:12:08;;;;;;;11.60;8.40;;;15.70;99.90;17.00;96857.00;;;;5094730;28;20199;-88
2022/09/07 04:14:58;;;;;;;14.03;9.30;;;15.70;99.90;17.30;96861.00;;;;5085696;28;20219;-88
2022/09/07 04:17:47;;;;;;;8.90;8.00;;;15.70;99.90;17.30;96858.00;;;;5079222;28;20211;-88
2022/09/07 04:20:36;;;;;;;8.47;7.63;;;15.80;99.90;17.00;96858.00;;;;5094650;28;20210;-89
2022/09/07 04:23:25;;;;;;;9.17;8.17;;;15.80;99.90;16.90;96858.00;;;;5094296;28;20194;-89
2022/09/07 04:26:17;;;;;;;9.70;8.80;;;15.70;99.90;16.90;96866.00;;;;5080470;28;20596;-89
2022/09/07 04:29:07;;;;;;;10.47;9.27;;;15.70;99.90;17.00;96870.00;;;;5095205;28;20206;-88
2022/09/07 04:31:57;;;;;;;9.83;8.93;;;15.70;99.90;17.30;96871.00;;;;5105088;28;20270;-88
2022/09/07 04:34:46;;;;;;;9.77;8.77;;;15.70;99.90;17.30;96868.00;;;;5096354;28;20215;-89
2022/09/07 04:37:35;;;;;;;9.77;7.53;;;15.80;99.90;17.00;96865.00;;;;5096699;28;20570;-88
2022/09/07 04:40:24;;;;;;;9.17;8.27;;;15.80;99.90;17.00;96869.00;;;;5082417;28;20199;-89
2022/09/07 04:43:12;;;;;;;11.60;8.20;;;15.70;99.90;17.00;96871.00;;;;5091998;28;20206;-88
2022/09/07 04:46:03;;;;;;;8.67;7.77;;;15.70;99.90;17.10;96873.00;;;;5080487;28;20595;-88
2022/09/07 04:48:55;;;;;;;9.47;8.57;;;15.70;99.90;17.10;96873.00;;;;5095765;28;20920;-87
2022/09/07 04:51:44;;;;;;;11.40;9.00;;;15.70;99.90;17.30;96876.00;;;;5105933;28;20202;-89
2022/09/07 04:54:33;;;;;;;10.27;8.87;;;15.70;99.90;17.50;96869.00;;;;5107464;28;20227;-87
2022/09/07 04:57:24;;;;;;;10.33;9.23;;;15.80;99.90;17.60;96867.00;;;;5075236;28;20188;-89
2022/09/07 05:00:14;;;;;;;10.50;8.97;;;15.90;99.90;17.50;96857.00;;;;5080824;28;20222;-88
2022/09/07 05:03:03;;;;;;;9.20;8.30;;;16.00;99.90;17.30;96876.00;;;;5085600;28;20199;-89
2022/09/07 05:05:53;;;;;;;10.10;8.13;;;16.00;99.90;17.10;96874.00;;;;5094502;28;20219;-88
2022/09/07 05:08:44;;;;;;;13.17;8.50;;;16.00;99.90;17.20;96878.00;;;;5092357;28;20199;-88
2022/09/07 05:11:33;;;;;;;10.27;8.93;;;16.00;99.90;17.20;96895.00;;;;5094222;28;20198;-89
2022/09/07 05:14:22;;;;;;;8.57;7.77;;;16.00;99.90;17.00;96885.00;;;;5085685;28;20224;-87
2022/09/07 05:17:11;;;;;;;11.50;9.77;;;14.90;99.90;17.10;96895.00;;;;5088576;28;20288;-87
2022/09/07 05:20:00;;;;;;;16.17;12.40;;;16.00;99.90;17.10;96890.00;;;;5092053;28;20199;-86
2022/09/07 05:22:58;;;;;;;10.37;8.97;;;16.00;99.90;17.10;96891.00;;;;5090168;28;20285;-86
2022/09/07 05:25:47;;;;;;;9.07;8.17;;;15.90;99.90;17.30;96895.00;;;;5091437;28;20223;-86
2022/09/07 05:28:37;;;;;;;10.00;9.10;;;16.00;99.90;17.30;96882.00;;;;5080057;28;20218;-86
2022/09/07 05:31:26;;;;;;;14.83;8.63;;;16.00;99.90;17.40;96885.00;;;;5077988;28;20203;-89
2022/09/07 05:34:15;;;;;;;11.03;9.87;;;16.10;99.90;17.10;96882.00;;;;5094022;28;20681;-86
2022/09/07 05:37:19;;;;;;;11.77;10.03;;;16.10;99.90;17.30;96878.00;;;;5094019;28;20195;-91
2022/09/07 05:40:13;;;;;;;9.23;8.23;;;16.20;99.90;17.40;96881.00;;;;5089544;28;20191;-88
2022/09/07 05:43:02;;;;;;;9.83;8.90;;;16.30;99.90;17.30;96886.00;;;;5094255;28;20202;-90
2022/09/07 05:45:55;;;;;;;10.30;8.40;;;16.30;99.90;17.50;96879.00;;;;5084978;28;20218;-88
2022/09/07 05:48:44;;;;;;;10.27;9.23;;;16.30;99.90;17.80;96881.00;;;;5074724;28;21039;-88
2022/09/07 05:51:35;;;;;;;10.37;9.43;;;16.50;99.90;18.30;96886.00;;;;5099837;28;20203;-89
2022/09/07 05:54:24;;;;;;;8.67;7.87;;;16.60;99.90;18.10;96884.00;;;;5091212;28;20233;-88
2022/09/07 05:57:14;;;;;;;9.77;8.60;;;16.70;99.90;18.10;96885.00;;;;5072904;28;20555;-87
2022/09/07 06:00:05;;;;;;;11.47;8.83;;;16.70;99.90;17.90;96886.00;;;;5085459;28;20199;-89
2022/09/07 06:02:53;;;;;;;11.20;9.00;;;16.70;99.90;18.10;96882.00;;;;5093063;28;20552;-87
2022/09/07 06:05:42;;;;;;;12.60;9.10;;;16.80;99.90;18.10;96882.00;;;;5093495;28;20238;-89
2022/09/07 06:08:32;;;;;;;8.37;7.57;;;16.80;99.90;18.30;96877.00;;;;5095052;28;20211;-89
2022/09/07 06:11:24;;;;;;;10.13;8.20;;;16.80;99.90;18.30;96886.00;;;;5087927;28;20662;-87
2022/09/07 06:14:14;;;;;;;9.47;8.67;;;16.90;99.90;18.50;96899.00;;;;5094189;28;20740;-87
2022/09/07 06:17:03;;;;;;;9.83;8.97;;;16.90;99.90;18.40;96899.00;;;;5093320;28;20586;-89
2022/09/07 06:19:53;;;;;;;14.23;9.10;;;17.00;99.90;18.60;96906.00;;;;5096840;28;20241;-88
2022/09/07 06:22:42;;;;;;;10.00;8.93;;;17.10;99.90;18.70;96910.00;;;;5108114;28;20186;-88
2022/09/07 06:25:31;;;;;;;9.10;8.20;;;17.20;99.90;18.60;96901.00;;;;5093985;28;20227;-88
2022/09/07 06:28:20;;;;;;;10.10;8.97;;;17.20;99.90;18.70;96910.00;;;;5104093;28;20187;-88
2022/09/07 06:31:12;;;;;;;11.27;9.43;;;17.30;99.90;18.90;96904.00;;;;5112399;28;20180;-89
2022/09/07 06:34:01;;;;;;;13.90;9.23;;;17.40;99.90;19.20;96901.00;;;;5106512;28;20203;-89
2022/09/07 06:36:50;;;;;;;12.57;10.17;;;17.50;99.90;19.30;96913.00;;;;5098463;28;20202;-89
2022/09/07 06:39:39;;;;;;;10.40;9.07;;;17.60;99.90;19.50;96902.00;;;;5106364;28;20201;-88
2022/09/07 06:42:28;;;;;;;12.43;9.33;;;17.70;99.90;19.70;96896.00;;;;5106721;28;20666;-88
2022/09/07 06:45:17;;;;;;;13.20;9.97;;;17.90;99.90;20.00;96909.00;;;;5096484;28;20219;-89
2022/09/07 06:48:07;;;;;;;10.57;9.33;;;18.10;99.90;20.20;96892.00;;;;5097630;28;20218;-89
2022/09/07 06:50:58;;;;;;;11.13;9.53;;;18.20;99.90;20.30;96886.00;;;;5105329;28;20275;-89
2022/09/07 06:53:48;;;;;;;10.33;9.27;;;18.40;99.90;20.50;96896.00;;;;5096452;28;20203;-88
2022/09/07 06:56:37;;;;;;;12.97;9.77;;;18.60;99.90;20.70;96889.00;;;;5098805;28;20195;-89
2022/09/07 06:59:26;;;;;;;10.47;9.43;;;18.70;99.90;20.90;96884.00;;;;5088462;28;20226;-88
2022/09/07 07:02:15;;;;;;;12.50;8.70;;;18.90;99.90;21.00;96887.00;;;;5087577;28;20223;-87
2022/09/07 07:05:06;;;;;;;9.40;8.20;;;19.00;99.90;21.10;96887.00;;;;5096322;28;20235;-87
2022/09/07 07:07:55;;;;;;;11.97;9.00;;;19.10;99.90;21.20;96895.00;;;;5090622;28;20713;-87
2022/09/07 07:10:44;;;;;;;9.97;8.13;;;19.30;99.90;21.40;96888.00;;;;5086293;28;20851;-88
2022/09/07 07:13:34;;;;;;;12.87;8.70;;;19.40;99.90;21.60;96896.00;;;;5083260;28;20196;-87
2022/09/07 07:16:24;;;;;;;8.30;7.50;;;19.60;99.90;21.60;96894.00;;;;5089942;28;20361;-88
2022/09/07 07:19:13;;;;;;;9.43;8.27;;;19.70;99.90;21.80;96882.00;;;;5088989;28;20203;-89
2022/09/07 07:22:04;;;;;;;8.20;7.40;;;19.80;99.90;21.90;96886.00;;;;5089129;28;20321;-88
2022/09/07 07:25:01;;;;;;;9.83;8.17;;;19.90;99.90;21.30;96889.00;;;;5089775;28;20220;-89
2022/09/07 07:27:50;;;;;;;8.63;7.83;;;19.90;99.90;21.20;96894.00;;;;5089034;28;20235;-87
2022/09/07 07:30:39;;;;;;;7.83;7.10;;;19.90;99.90;21.30;96893.00;;;;5088955;28;20298;-88
2022/09/07 07:33:32;;;;;;;11.77;7.70;;;19.90;99.90;21.40;96888.00;;;;5081744;28;20242;-89
2022/09/07 07:36:22;;;;;;;7.87;7.17;;;19.90;99.90;21.30;96893.00;;;;5085866;28;20254;-88
2022/09/07 07:39:13;;;;;;;9.50;8.07;;;19.80;99.90;21.30;96898.00;;;;5088252;28;20325;-86
2022/09/07 07:42:22;;;;;;;9.20;7.70;;;19.90;99.90;21.40;96898.00;;;;5086212;28;20290;-88
2022/09/07 07:45:12;;;;;;;9.00;8.13;;;20.20;99.90;21.80;96890.00;;;;5086049;28;20288;-88
2022/09/07 07:48:21;;;;;;;11.07;8.70;;;20.00;99.90;22.20;96897.00;;;;5084114;28;20270;-87
2022/09/07 07:51:15;;;;;;;8.73;7.90;;;20.20;99.90;22.30;96896.00;;;;5082425;28;20294;-88
2022/09/07 07:54:04;;;;;;;10.67;8.10;;;20.40;99.90;22.70;96894.00;;;;5086195;28;20618;-87
2022/09/07 07:56:54;;;;;;;10.57;9.13;;;20.60;99.90;23.10;96893.00;;;;5090644;28;20199;-85
2022/09/07 07:59:43;;;;;;;12.30;8.57;;;20.80;99.90;23.10;96900.00;;;;5085232;28;20215;-85
2022/09/07 08:02:31;;;;;;;9.17;7.37;;;21.00;99.90;23.00;96912.00;;;;5085695;28;20578;-88
2022/09/07 08:05:20;;;;;;;8.43;7.53;;;21.20;99.90;23.20;96911.00;;;;5080325;28;20223;-86
2022/09/07 08:08:10;;;;;;;8.67;7.77;;;21.30;99.90;23.10;96910.00;;;;5080639;28;20235;-86
2022/09/07 08:10:58;;;;;;;9.37;8.17;;;21.30;99.90;22.80;96902.00;;;;5081848;28;20700;-87
2022/09/07 08:13:54;;;;;;;8.60;7.43;;;21.30;99.90;23.20;96901.00;;;;5084680;28;20263;-87
2022/09/07 08:16:43;;;;;;;10.90;8.17;;;21.40;99.90;23.80;96900.00;;;;5084830;28;20720;-86
2022/09/07 08:19:32;;;;;;;10.30;8.23;;;21.50;99.90;23.70;96894.00;;;;5073003;28;20841;-87
2022/09/07 08:22:21;;;;;;;9.80;7.80;;;21.70;99.90;23.70;96900.00;;;;5075168;28;20208;-87
2022/09/07 08:25:10;;;;;;;8.80;8.00;;;21.80;99.90;23.90;96907.00;;;;5080799;28;20248;-88
2022/09/07 08:27:58;;;;;;;9.70;7.63;;;22.00;99.90;23.90;96900.00;;;;5085613;28;20597;-87
2022/09/07 08:30:49;;;;;;;8.60;7.40;;;22.00;99.90;24.60;96896.00;;;;5086196;28;20264;-87
2022/09/07 08:33:38;;;;;;;8.83;7.50;;;22.30;99.90;25.00;96899.00;;;;5084117;28;20214;-87
2022/09/07 08:36:30;;;;;;;10.07;9.23;;;22.50;99.90;24.90;96894.00;;;;5080690;28;20226;-87
2022/09/07 08:39:19;;;;;;;9.27;8.03;;;22.70;99.90;24.40;96894.00;;;;5090466;28;20666;-88
2022/09/07 08:42:26;;;;;;;11.60;8.27;;;22.70;99.90;24.60;96890.00;;;;5077847;28;20211;-88
2022/09/07 08:45:21;;;;;;;7.80;7.10;;;22.80;99.90;25.20;96898.00;;;;5083457;28;21122;-88
2022/09/07 08:48:19;;;;;;;8.83;8.03;;;23.00;99.90;25.70;96898.00;;;;5091253;28;20310;-87
2022/09/07 08:51:18;;;;;;;8.10;7.20;;;23.20;99.90;26.00;96888.00;;;;5080869;28;20196;-88
2022/09/07 08:54:13;;;;;;;6.73;6.07;;;23.50;99.90;25.90;96880.00;;;;5080178;28;20227;-88
2022/09/07 08:57:03;;;;;;;6.73;6.07;;;23.70;99.90;25.80;96888.00;;;;5076873;28;20204;-88
2022/09/07 09:00:13;;;;;;;6.80;6.13;;;23.80;99.90;26.00;96883.00;;;;5079511;28;20196;-89
2022/09/07 09:03:07;;;;;;;7.47;6.63;;;23.90;99.90;26.40;96880.00;;;;5076822;28;20192;-88
2022/09/07 09:06:29;;;;;;;9.03;6.73;;;24.10;99.90;26.40;96877.00;;;;5079600;28;20669;-88
2022/09/07 09:09:27;;;;;;;6.23;5.63;;;24.20;99.90;26.80;96878.00;;;;5079330;28;20202;-89
2022/09/07 09:12:27;;;;;;;7.30;6.53;;;24.40;99.90;26.80;96883.00;;;;5080064;28;20213;-88
2022/09/07 09:15:21;;;;;;;6.93;6.30;;;24.60;99.90;26.70;96874.00;;;;5081995;28;20233;-87
2022/09/07 09:18:34;;;;;;;7.63;6.20;;;24.70;99.90;26.90;96879.00;;;;5080972;28;20199;-89
2022/09/07 09:21:25;;;;;;;6.67;6.07;;;24.80;99.90;26.70;96877.00;;;;5080140;28;20716;-87
2022/09/07 09:24:18;;;;;;;6.37;5.83;;;24.90;99.90;27.40;96877.00;;;;5081651;28;20224;-88
2022/09/07 09:27:09;;;;;;;8.07;6.93;;;25.10;99.90;27.40;96878.00;;;;5079224;28;20232;-88
2022/09/07 09:29:57;;;;;;;8.13;5.63;;;25.30;99.90;27.60;96878.00;;;;5102506;22;20236;-75
2022/09/07 09:32:49;;;;;;;14.20;6.43;;;25.40;99.90;27.80;96869.00;;;;5090328;28;20612;-75
2022/09/07 09:35:39;;;;;;;6.23;5.60;;;25.60;99.90;27.80;96864.00;;;;5094737;28;20725;-74
2022/09/07 09:38:35;;;;;;;6.80;6.10;;;25.70;99.90;28.10;96865.00;;;;5081697;28;20287;-75
2022/09/07 09:41:24;;;;;;;6.53;5.90;;;25.80;99.90;28.00;96865.00;;;;5080922;28;20224;-75
2022/09/07 09:44:16;;;;;;;6.77;6.27;;;25.90;99.90;27.90;96856.00;;;;5085042;28;20201;-75
2022/09/07 09:47:06;;;;;;;7.87;6.27;;;26.00;99.90;26.90;96862.00;;;;5078306;28;20221;-73
2022/09/07 09:50:22;;;;;;;6.13;5.53;;;25.80;99.90;28.20;96856.00;;;;5076333;28;20924;-74
2022/09/07 09:53:35;;;;;;;6.67;6.17;;;26.00;99.90;28.20;96859.00;;;;5073168;28;20201;-74
2022/09/07 09:56:40;;;;;;;6.70;6.10;;;26.10;99.90;28.30;96857.00;;;;5072654;28;20222;-73
2022/09/07 09:59:31;;;;;;;5.80;5.30;;;26.30;99.90;28.90;96856.00;;;;5079302;28;20240;-73
2022/09/07 10:02:39;;;;;;;7.73;5.73;;;26.40;99.90;29.00;96847.00;;;;5077529;28;20201;-73
2022/09/07 10:05:49;;;;;;;7.97;6.13;;;26.70;99.90;29.20;96851.00;;;;5079912;28;20606;-73
2022/09/07 10:08:40;;;;;;;12.77;7.17;;;26.80;99.90;29.60;96842.00;;;;5077071;28;20571;-74
2022/09/07 10:11:43;;;;;;;6.00;5.50;;;27.00;99.90;29.20;96836.00;;;;5076016;28;20220;-73
2022/09/07 10:14:52;;;;;;;6.53;5.90;;;27.20;99.90;29.60;96842.00;;;;5076244;28;20203;-73
2022/09/07 10:17:42;;;;;;;5.70;5.20;;;27.20;99.90;29.90;96838.00;;;;5081151;28;21053;-74
2022/09/07 10:20:35;;;;;;;6.50;5.87;;;27.50;99.90;30.00;96835.00;;;;5078723;28;20289;-74
2022/09/07 10:23:27;;;;;;;6.23;5.63;;;27.60;99.90;30.10;96835.00;;;;5078440;28;20203;-73
2022/09/07 10:26:32;;;;;;;7.00;6.37;;;27.80;99.90;30.60;96821.00;;;;5076803;28;20230;-74
2022/09/07 10:29:29;;;;;;;6.50;6.00;;;28.00;99.90;30.10;96819.00;;;;5077150;28;20224;-74
2022/09/07 10:32:26;;;;;;;6.57;5.83;;;28.20;99.90;30.60;96814.00;;;;5075739;28;20189;-74
2022/09/07 10:35:22;;;;;;;6.80;4.93;;;28.20;99.90;30.30;96810.00;;;;5083625;28;20211;-73
2022/09/07 10:38:17;;;;;;;6.93;6.33;;;28.30;99.90;29.90;96797.00;;;;5078832;28;20326;-73
2022/09/07 10:41:09;;;;;;;6.83;6.13;;;28.30;99.90;30.60;96803.00;;;;5078345;28;20700;-73
2022/09/07 10:44:00;;;;;;;6.60;6.10;;;28.30;99.90;30.90;96805.00;;;;5076486;28;20324;-76
2022/09/07 10:46:56;;;;;;;6.63;5.97;;;28.50;99.90;30.70;96793.00;;;;5082582;28;20233;-75
2022/09/07 10:49:50;;;;;;;5.90;5.40;;;28.60;99.90;30.60;96794.00;;;;5079736;28;20673;-74
2022/09/07 10:53:25;;;;;;;5.77;5.30;;;28.70;99.90;31.40;96798.00;;;;5082575;28;20209;-76
2022/09/07 10:56:35;;;;;;;6.20;5.60;;;28.80;99.90;31.60;96792.00;;;;5080676;28;20963;-74
2022/09/07 10:59:40;;;;;;;6.17;5.53;;;28.90;99.90;31.90;96791.00;;;;5075873;28;20713;-73
2022/09/07 11:03:22;;;;;;;7.20;5.53;;;29.10;99.90;31.90;96780.00;;;;5076621;28;20235;-74
2022/09/07 11:06:20;;;;;;;7.38;5.78;;;29.40;99.90;32.40;96786.00;;;;5080047;28;20227;-73
2022/09/07 11:09:47;;;;;;;6.13;5.53;;;29.70;99.90;32.10;96779.00;;;;5082654;28;20228;-74
2022/09/07 11:12:39;;;;;;;6.75;5.15;;;29.80;99.90;32.60;96781.00;;;;5077647;28;20699;-75
2022/09/07 11:15:33;;;;;;;5.55;5.10;;;30.00;99.90;32.60;96782.00;;;;5074968;28;20272;-75
2022/09/07 11:18:27;;;;;;;6.15;4.57;;;30.20;99.90;32.20;96768.00;;;;5075086;28;20588;-74
2022/09/07 11:21:21;;;;;;;6.60;6.00;;;30.30;99.90;33.20;96777.00;;;;5090193;28;20210;-72
2022/09/07 11:24:39;;;;;;;6.55;5.45;;;30.50;99.90;32.10;96763.00;;;;5077434;28;20328;-73
2022/09/07 11:27:35;;;;;;;6.38;5.80;;;30.30;99.90;32.20;96760.00;;;;5075475;28;20711;-74
2022/09/07 11:30:30;;;;;;;6.22;5.63;;;30.40;99.90;31.40;96765.00;;;;5079404;28;20211;-71
2022/09/07 11:33:22;;;;;;;5.82;5.40;;;30.50;99.30;32.90;96749.00;;;;5081992;28;20201;-72
2022/09/07 11:36:15;;;;;;;7.03;5.85;;;30.50;99.90;33.70;96744.00;;;;5085039;28;20587;-73
2022/09/07 11:39:10;;;;;;;6.80;6.15;;;30.90;99.90;33.30;96802.00;;;;5079799;28;20210;-72
2022/09/07 11:42:03;;;;;;;6.00;5.50;;;31.00;97.40;32.60;96803.00;;;;5078224;28;20236;-73
2022/09/07 11:45:17;;;;;;;5.80;5.30;;;30.70;98.60;32.00;96796.00;;;;5083546;28;20218;-73
2022/09/07 11:48:14;;;;;;;6.38;5.15;;;30.40;98.10;31.90;96761.00;;;;5083573;28;20222;-75
2022/09/07 11:51:14;;;;;;;6.05;5.55;;;30.20;98.30;31.10;96796.00;;;;5082640;28;20209;-73
2022/09/07 11:54:30;;;;;;;6.72;6.13;;;29.80;98.30;31.70;96792.00;;;;5087153;28;20202;-75
2022/09/07 11:57:37;;;;;;;6.70;6.10;;;29.70;99.50;31.80;96743.00;;;;5083103;28;20566;-74
2022/09/07 12:00:40;;;;;;;7.70;5.68;;;29.60;99.90;32.70;96741.00;;;;5071709;28;20206;-75
2022/09/07 12:04:14;;;;;;;6.45;5.85;;;30.00;99.90;32.90;96734.00;;;;5074165;28;20209;-75
2022/09/07 12:07:26;;;;;;;7.03;6.43;;;30.30;99.80;33.10;96729.00;;;;5074774;28;20238;-75
2022/09/07 12:10:53;;;;;;;8.52;6.65;;;30.70;98.40;34.70;96725.00;;;;5078498;28;20227;-75
2022/09/07 12:14:12;;;;;;;6.25;5.70;;;31.40;99.00;35.60;96716.00;;;;5078269;28;20219;-75
2022/09/07 12:17:29;;;;;;;6.40;5.90;;;32.10;97.50;36.40;96710.00;;;;5077432;28;20611;-75
2022/09/07 12:20:21;;;;;;;5.93;5.43;;;32.70;96.20;34.40;96714.00;;;;5082178;28;20225;-77
2022/09/07 12:23:29;;;;;;;5.45;5.00;;;33.00;93.00;36.30;96732.00;;;;5071346;28;20677;-76
2022/09/07 12:26:51;;;;;;;8.13;5.78;;;33.20;94.60;36.40;96733.00;;;;5082578;28;20623;-76
2022/09/07 12:29:40;;;;;;;6.35;5.78;;;33.70;91.90;36.70;96723.00;;;;4993244;28;20299;-76
2022/09/07 12:33:04;;;;;;;7.10;6.07;;;34.00;92.40;36.50;96779.00;;;;5083812;28;20943;-75
2022/09/07 12:35:57;;;;;;;6.32;5.82;;;34.20;91.50;34.80;96777.00;;;;5078342;28;20234;-76
2022/09/07 12:39:26;;;;;;;5.90;5.40;;;33.70;90.60;33.60;96780.00;;;;5077498;28;20787;-76
2022/09/07 12:42:23;;;;;;;6.13;5.63;;;32.90;91.00;32.40;96766.00;;;;5070525;28;20621;-76
2022/09/07 12:45:50;;;;;;;6.18;5.68;;;32.10;91.50;32.20;96772.00;;;;5079383;28;20207;-76
2022/09/07 12:48:52;;;;;;;7.30;6.22;;;31.40;92.90;31.90;96751.00;;;;5079267;28;20810;-75
2022/09/07 12:51:42;;;;;;;6.63;6.03;;;30.80;93.60;33.50;96714.00;;;;5082121;28;20677;-76
2022/09/07 12:54:55;;;;;;;8.63;5.97;;;31.00;94.20;35.00;96733.00;;;;5084920;28;21943;-76
2022/09/07 12:58:14;;;;;;;8.63;7.15;;;31.30;95.10;33.40;96773.00;;;;5083544;28;20195;-76